sensor_id;sensor_type;location;lat;lon;timestamp;P1;durP1;ratioP1;P2;durP2;ratioP2
28988;SDS011;16089;59.952;10.818;2023-07-24T00:00:37;6.32;;;2.15;;
28988;SDS011;16089;59.952;10.818;2023-07-24T00:03:05;3.25;;;1.75;;
28988;SDS011;16089;59.952;10.818;2023-07-24T00:05:31;4.97;;;1.80;;
28988;SDS011;16089;59.952;10.818;2023-07-24T00:07:58;3.17;;;1.50;;
28988;SDS011;16089;59.952;10.818;2023-07-24T00:10:25;3.10;;;1.70;;
28988;SDS011;16089;59.952;10.818;2023-07-24T00:12:52;4.40;;;1.67;;
28988;SDS011;16089;59.952;10.818;2023-07-24T00:15:18;4.00;;;1.70;;
28988;SDS011;16089;59.952;10.818;2023-07-24T00:17:44;3.28;;;1.80;;
28988;SDS011;16089;59.952;10.818;2023-07-24T00:20:11;6.00;;;1.83;;
28988;SDS011;16089;59.952;10.818;2023-07-24T00:22:37;3.50;;;1.60;;
28988;SDS011;16089;59.952;10.818;2023-07-24T00:25:04;2.78;;;1.17;;
28988;SDS011;16089;59.952;10.818;2023-07-24T00:27:32;3.65;;;1.30;;
28988;SDS011;16089;59.952;10.818;2023-07-24T00:29:58;2.58;;;1.15;;
28988;SDS011;16089;59.952;10.818;2023-07-24T00:32:25;3.05;;;1.30;;
28988;SDS011;16089;59.952;10.818;2023-07-24T00:34:51;2.13;;;1.20;;
28988;SDS011;16089;59.952;10.818;2023-07-24T00:37:17;3.78;;;1.17;;
28988;SDS011;16089;59.952;10.818;2023-07-24T00:39:44;3.30;;;0.90;;
28988;SDS011;16089;59.952;10.818;2023-07-24T00:42:10;1.90;;;0.90;;
28988;SDS011;16089;59.952;10.818;2023-07-24T00:44:37;3.47;;;0.98;;
28988;SDS011;16089;59.952;10.818;2023-07-24T00:47:04;7.85;;;1.02;;
28988;SDS011;16089;59.952;10.818;2023-07-24T00:49:31;2.05;;;0.90;;
28988;SDS011;16089;59.952;10.818;2023-07-24T00:51:57;2.10;;;1.05;;
28988;SDS011;16089;59.952;10.818;2023-07-24T00:54:23;2.17;;;1.00;;
28988;SDS011;16089;59.952;10.818;2023-07-24T00:56:50;1.58;;;0.80;;
28988;SDS011;16089;59.952;10.818;2023-07-24T00:59:16;2.00;;;0.98;;
28988;SDS011;16089;59.952;10.818;2023-07-24T01:01:44;4.18;;;1.00;;
28988;SDS011;16089;59.952;10.818;2023-07-24T01:04:10;3.22;;;0.80;;
28988;SDS011;16089;59.952;10.818;2023-07-24T01:06:37;2.40;;;0.77;;
28988;SDS011;16089;59.952;10.818;2023-07-24T01:09:03;1.52;;;0.90;;
28988;SDS011;16089;59.952;10.818;2023-07-24T01:11:33;1.73;;;0.80;;
28988;SDS011;16089;59.952;10.818;2023-07-24T01:14:04;1.75;;;0.70;;
28988;SDS011;16089;59.952;10.818;2023-07-24T01:16:36;1.27;;;0.75;;
28988;SDS011;16089;59.952;10.818;2023-07-24T01:19:04;3.78;;;1.02;;
28988;SDS011;16089;59.952;10.818;2023-07-24T01:21:39;1.65;;;0.88;;
28988;SDS011;16089;59.952;10.818;2023-07-24T01:24:09;2.65;;;0.73;;
28988;SDS011;16089;59.952;10.818;2023-07-24T01:26:42;1.60;;;0.90;;
28988;SDS011;16089;59.952;10.818;2023-07-24T01:29:08;5.10;;;1.00;;
28988;SDS011;16089;59.952;10.818;2023-07-24T01:31:34;4.45;;;0.90;;
28988;SDS011;16089;59.952;10.818;2023-07-24T01:34:01;4.40;;;0.90;;
28988;SDS011;16089;59.952;10.818;2023-07-24T01:36:27;1.80;;;0.80;;
28988;SDS011;16089;59.952;10.818;2023-07-24T01:38:53;2.08;;;0.80;;
28988;SDS011;16089;59.952;10.818;2023-07-24T01:41:20;2.30;;;0.98;;
28988;SDS011;16089;59.952;10.818;2023-07-24T01:43:48;1.42;;;0.65;;
28988;SDS011;16089;59.952;10.818;2023-07-24T01:46:14;2.58;;;0.90;;
28988;SDS011;16089;59.952;10.818;2023-07-24T01:48:40;1.48;;;0.80;;
28988;SDS011;16089;59.952;10.818;2023-07-24T01:51:07;1.85;;;0.90;;
28988;SDS011;16089;59.952;10.818;2023-07-24T01:53:33;1.90;;;0.90;;
28988;SDS011;16089;59.952;10.818;2023-07-24T01:55:59;1.70;;;0.80;;
28988;SDS011;16089;59.952;10.818;2023-07-24T01:58:26;2.42;;;0.80;;
28988;SDS011;16089;59.952;10.818;2023-07-24T02:00:55;2.08;;;0.70;;
28988;SDS011;16089;59.952;10.818;2023-07-24T02:03:22;4.43;;;0.90;;
28988;SDS011;16089;59.952;10.818;2023-07-24T02:05:49;2.28;;;1.08;;
28988;SDS011;16089;59.952;10.818;2023-07-24T02:08:15;1.38;;;0.65;;
28988;SDS011;16089;59.952;10.818;2023-07-24T02:10:41;2.55;;;0.75;;
28988;SDS011;16089;59.952;10.818;2023-07-24T02:13:08;1.42;;;0.80;;
28988;SDS011;16089;59.952;10.818;2023-07-24T02:15:34;3.00;;;0.90;;
28988;SDS011;16089;59.952;10.818;2023-07-24T02:18:02;1.45;;;0.70;;
28988;SDS011;16089;59.952;10.818;2023-07-24T02:20:28;1.27;;;0.70;;
28988;SDS011;16089;59.952;10.818;2023-07-24T02:22:54;2.75;;;0.80;;
28988;SDS011;16089;59.952;10.818;2023-07-24T02:25:21;1.77;;;0.77;;
28988;SDS011;16089;59.952;10.818;2023-07-24T02:27:47;2.92;;;0.80;;
28988;SDS011;16089;59.952;10.818;2023-07-24T02:30:13;2.92;;;0.85;;
28988;SDS011;16089;59.952;10.818;2023-07-24T02:32:40;1.70;;;0.88;;
28988;SDS011;16089;59.952;10.818;2023-07-24T02:35:08;3.40;;;0.77;;
28988;SDS011;16089;59.952;10.818;2023-07-24T02:37:34;1.40;;;0.80;;
28988;SDS011;16089;59.952;10.818;2023-07-24T02:40:00;2.20;;;0.85;;
28988;SDS011;16089;59.952;10.818;2023-07-24T02:42:27;1.75;;;0.90;;
28988;SDS011;16089;59.952;10.818;2023-07-24T02:44:53;1.17;;;0.75;;
28988;SDS011;16089;59.952;10.818;2023-07-24T02:47:19;2.17;;;0.75;;
28988;SDS011;16089;59.952;10.818;2023-07-24T02:49:46;2.97;;;0.90;;
28988;SDS011;16089;59.952;10.818;2023-07-24T02:52:13;2.08;;;0.70;;
28988;SDS011;16089;59.952;10.818;2023-07-24T02:54:40;2.30;;;0.88;;
28988;SDS011;16089;59.952;10.818;2023-07-24T02:57:06;1.42;;;0.70;;
28988;SDS011;16089;59.952;10.818;2023-07-24T02:59:32;2.85;;;0.70;;
28988;SDS011;16089;59.952;10.818;2023-07-24T03:02:00;3.10;;;0.80;;
28988;SDS011;16089;59.952;10.818;2023-07-24T03:04:26;1.20;;;0.70;;
28988;SDS011;16089;59.952;10.818;2023-07-24T03:06:53;1.23;;;0.70;;
28988;SDS011;16089;59.952;10.818;2023-07-24T03:09:20;3.60;;;0.73;;
28988;SDS011;16089;59.952;10.818;2023-07-24T03:11:47;1.30;;;0.70;;
28988;SDS011;16089;59.952;10.818;2023-07-24T03:14:13;2.67;;;0.90;;
28988;SDS011;16089;59.952;10.818;2023-07-24T03:16:39;1.08;;;0.60;;
28988;SDS011;16089;59.952;10.818;2023-07-24T03:19:06;1.90;;;1.20;;
28988;SDS011;16089;59.952;10.818;2023-07-24T03:21:32;1.85;;;0.70;;
28988;SDS011;16089;59.952;10.818;2023-07-24T03:23:58;3.75;;;0.65;;
28988;SDS011;16089;59.952;10.818;2023-07-24T03:26:26;3.38;;;0.80;;
28988;SDS011;16089;59.952;10.818;2023-07-24T03:28:52;3.72;;;0.80;;
28988;SDS011;16089;59.952;10.818;2023-07-24T03:31:18;1.95;;;0.80;;
28988;SDS011;16089;59.952;10.818;2023-07-24T03:33:45;1.48;;;0.68;;
28988;SDS011;16089;59.952;10.818;2023-07-24T03:36:11;2.20;;;0.70;;
28988;SDS011;16089;59.952;10.818;2023-07-24T03:38:37;5.93;;;0.80;;
28988;SDS011;16089;59.952;10.818;2023-07-24T03:41:04;2.10;;;0.70;;
28988;SDS011;16089;59.952;10.818;2023-07-24T03:43:31;0.98;;;0.50;;
28988;SDS011;16089;59.952;10.818;2023-07-24T03:45:58;1.52;;;0.70;;
28988;SDS011;16089;59.952;10.818;2023-07-24T03:48:24;2.28;;;0.88;;
28988;SDS011;16089;59.952;10.818;2023-07-24T03:50:57;1.33;;;0.73;;
28988;SDS011;16089;59.952;10.818;2023-07-24T03:53:23;1.92;;;0.70;;
28988;SDS011;16089;59.952;10.818;2023-07-24T03:55:49;1.88;;;0.60;;
28988;SDS011;16089;59.952;10.818;2023-07-24T03:58:16;1.98;;;0.80;;
28988;SDS011;16089;59.952;10.818;2023-07-24T04:00:43;1.13;;;0.65;;
28988;SDS011;16089;59.952;10.818;2023-07-24T04:03:10;1.33;;;0.60;;
28988;SDS011;16089;59.952;10.818;2023-07-24T04:05:36;1.65;;;0.77;;
28988;SDS011;16089;59.952;10.818;2023-07-24T04:08:03;3.80;;;0.80;;
28988;SDS011;16089;59.952;10.818;2023-07-24T04:10:29;2.50;;;0.60;;
28988;SDS011;16089;59.952;10.818;2023-07-24T04:12:56;1.88;;;0.80;;
28988;SDS011;16089;59.952;10.818;2023-07-24T04:15:22;2.78;;;0.80;;
28988;SDS011;16089;59.952;10.818;2023-07-24T04:17:50;1.90;;;0.60;;
28988;SDS011;16089;59.952;10.818;2023-07-24T04:20:16;2.88;;;0.80;;
28988;SDS011;16089;59.952;10.818;2023-07-24T04:22:42;1.75;;;0.70;;
28988;SDS011;16089;59.952;10.818;2023-07-24T04:25:09;1.08;;;0.70;;
28988;SDS011;16089;59.952;10.818;2023-07-24T04:27:35;1.75;;;0.65;;
28988;SDS011;16089;59.952;10.818;2023-07-24T04:30:01;2.95;;;0.77;;
28988;SDS011;16089;59.952;10.818;2023-07-24T04:32:28;1.15;;;0.60;;
28988;SDS011;16089;59.952;10.818;2023-07-24T04:34:55;1.50;;;0.80;;
28988;SDS011;16089;59.952;10.818;2023-07-24T04:37:22;1.10;;;0.65;;
28988;SDS011;16089;59.952;10.818;2023-07-24T04:39:48;4.28;;;0.70;;
28988;SDS011;16089;59.952;10.818;2023-07-24T04:42:14;2.55;;;0.77;;
28988;SDS011;16089;59.952;10.818;2023-07-24T04:44:41;1.17;;;0.73;;
28988;SDS011;16089;59.952;10.818;2023-07-24T04:47:08;2.17;;;0.70;;
28988;SDS011;16089;59.952;10.818;2023-07-24T04:49:34;1.48;;;0.73;;
28988;SDS011;16089;59.952;10.818;2023-07-24T04:52:02;2.40;;;0.88;;
28988;SDS011;16089;59.952;10.818;2023-07-24T04:54:29;1.65;;;0.65;;
28988;SDS011;16089;59.952;10.818;2023-07-24T04:56:55;1.45;;;0.60;;
28988;SDS011;16089;59.952;10.818;2023-07-24T04:59:21;1.77;;;0.60;;
28988;SDS011;16089;59.952;10.818;2023-07-24T05:01:48;1.45;;;0.70;;
28988;SDS011;16089;59.952;10.818;2023-07-24T05:04:15;0.98;;;0.70;;
28988;SDS011;16089;59.952;10.818;2023-07-24T05:06:41;1.48;;;0.70;;
28988;SDS011;16089;59.952;10.818;2023-07-24T05:09:09;1.20;;;0.60;;
28988;SDS011;16089;59.952;10.818;2023-07-24T05:11:35;1.08;;;0.50;;
28988;SDS011;16089;59.952;10.818;2023-07-24T05:14:01;1.13;;;0.60;;
28988;SDS011;16089;59.952;10.818;2023-07-24T05:16:28;2.85;;;1.45;;
28988;SDS011;16089;59.952;10.818;2023-07-24T05:18:54;1.80;;;0.70;;
28988;SDS011;16089;59.952;10.818;2023-07-24T05:21:20;2.30;;;0.60;;
28988;SDS011;16089;59.952;10.818;2023-07-24T05:23:47;1.33;;;0.52;;
28988;SDS011;16089;59.952;10.818;2023-07-24T05:26:14;2.65;;;0.70;;
28988;SDS011;16089;59.952;10.818;2023-07-24T05:28:41;2.65;;;0.70;;
28988;SDS011;16089;59.952;10.818;2023-07-24T05:31:07;1.30;;;0.70;;
28988;SDS011;16089;59.952;10.818;2023-07-24T05:33:34;1.45;;;0.75;;
28988;SDS011;16089;59.952;10.818;2023-07-24T05:36:00;2.97;;;0.77;;
28988;SDS011;16089;59.952;10.818;2023-07-24T05:38:28;1.30;;;0.60;;
28988;SDS011;16089;59.952;10.818;2023-07-24T05:40:55;2.50;;;0.70;;
28988;SDS011;16089;59.952;10.818;2023-07-24T05:43:23;3.13;;;0.70;;
28988;SDS011;16089;59.952;10.818;2023-07-24T05:45:49;2.00;;;0.65;;
28988;SDS011;16089;59.952;10.818;2023-07-24T05:48:16;1.48;;;0.63;;
28988;SDS011;16089;59.952;10.818;2023-07-24T05:50:42;0.88;;;0.50;;
28988;SDS011;16089;59.952;10.818;2023-07-24T05:53:08;2.28;;;0.85;;
28988;SDS011;16089;59.952;10.818;2023-07-24T05:55:35;3.20;;;0.80;;
28988;SDS011;16089;59.952;10.818;2023-07-24T05:58:01;2.50;;;0.65;;
28988;SDS011;16089;59.952;10.818;2023-07-24T06:00:29;2.45;;;0.70;;
28988;SDS011;16089;59.952;10.818;2023-07-24T06:02:55;1.15;;;0.70;;
28988;SDS011;16089;59.952;10.818;2023-07-24T06:05:22;2.50;;;0.88;;
28988;SDS011;16089;59.952;10.818;2023-07-24T06:07:48;1.85;;;0.80;;
28988;SDS011;16089;59.952;10.818;2023-07-24T06:10:14;2.05;;;0.63;;
28988;SDS011;16089;59.952;10.818;2023-07-24T06:12:41;1.10;;;0.55;;
28988;SDS011;16089;59.952;10.818;2023-07-24T06:15:07;1.33;;;0.70;;
28988;SDS011;16089;59.952;10.818;2023-07-24T06:17:35;2.90;;;0.65;;
28988;SDS011;16089;59.952;10.818;2023-07-24T06:20:01;1.73;;;0.60;;
28988;SDS011;16089;59.952;10.818;2023-07-24T06:22:28;1.27;;;0.60;;
28988;SDS011;16089;59.952;10.818;2023-07-24T06:24:54;1.90;;;0.68;;
28988;SDS011;16089;59.952;10.818;2023-07-24T06:27:20;1.42;;;0.63;;
28988;SDS011;16089;59.952;10.818;2023-07-24T06:29:47;1.98;;;0.70;;
28988;SDS011;16089;59.952;10.818;2023-07-24T06:32:13;1.10;;;0.60;;
28988;SDS011;16089;59.952;10.818;2023-07-24T06:34:41;1.27;;;0.70;;
28988;SDS011;16089;59.952;10.818;2023-07-24T06:37:07;1.90;;;0.60;;
28988;SDS011;16089;59.952;10.818;2023-07-24T06:39:33;1.95;;;0.60;;
28988;SDS011;16089;59.952;10.818;2023-07-24T06:42:00;2.50;;;0.50;;
28988;SDS011;16089;59.952;10.818;2023-07-24T06:44:26;2.72;;;1.27;;
28988;SDS011;16089;59.952;10.818;2023-07-24T06:46:52;1.95;;;0.73;;
28988;SDS011;16089;59.952;10.818;2023-07-24T06:49:19;1.67;;;0.70;;
28988;SDS011;16089;59.952;10.818;2023-07-24T06:51:46;1.92;;;0.50;;
28988;SDS011;16089;59.952;10.818;2023-07-24T06:54:13;2.08;;;0.60;;
28988;SDS011;16089;59.952;10.818;2023-07-24T06:56:39;1.15;;;0.50;;
28988;SDS011;16089;59.952;10.818;2023-07-24T06:59:05;1.85;;;0.70;;
28988;SDS011;16089;59.952;10.818;2023-07-24T07:01:31;4.13;;;1.23;;
28988;SDS011;16089;59.952;10.818;2023-07-24T07:03:58;2.83;;;1.50;;
28988;SDS011;16089;59.952;10.818;2023-07-24T07:06:24;2.25;;;1.20;;
28988;SDS011;16089;59.952;10.818;2023-07-24T07:08:52;3.03;;;1.10;;
28988;SDS011;16089;59.952;10.818;2023-07-24T07:11:18;2.53;;;1.05;;
28988;SDS011;16089;59.952;10.818;2023-07-24T07:13:44;3.28;;;0.77;;
28988;SDS011;16089;59.952;10.818;2023-07-24T07:16:11;2.30;;;0.80;;
28988;SDS011;16089;59.952;10.818;2023-07-24T07:18:37;3.58;;;0.90;;
28988;SDS011;16089;59.952;10.818;2023-07-24T07:21:03;1.42;;;0.90;;
28988;SDS011;16089;59.952;10.818;2023-07-24T07:23:30;2.17;;;0.90;;
28988;SDS011;16089;59.952;10.818;2023-07-24T07:25:57;1.52;;;0.80;;
28988;SDS011;16089;59.952;10.818;2023-07-24T07:28:24;1.50;;;0.80;;
28988;SDS011;16089;59.952;10.818;2023-07-24T07:30:50;1.95;;;0.50;;
28988;SDS011;16089;59.952;10.818;2023-07-24T07:33:16;3.78;;;0.75;;
28988;SDS011;16089;59.952;10.818;2023-07-24T07:35:43;2.85;;;0.82;;
28988;SDS011;16089;59.952;10.818;2023-07-24T07:38:09;1.75;;;0.80;;
28988;SDS011;16089;59.952;10.818;2023-07-24T07:40:36;1.65;;;0.80;;
28988;SDS011;16089;59.952;10.818;2023-07-24T07:43:04;3.25;;;0.80;;
28988;SDS011;16089;59.952;10.818;2023-07-24T07:45:30;3.20;;;0.80;;
28988;SDS011;16089;59.952;10.818;2023-07-24T07:47:56;2.38;;;0.70;;
28988;SDS011;16089;59.952;10.818;2023-07-24T07:50:23;2.75;;;1.23;;
28988;SDS011;16089;59.952;10.818;2023-07-24T07:52:49;1.88;;;1.00;;
28988;SDS011;16089;59.952;10.818;2023-07-24T07:55:16;2.10;;;0.80;;
28988;SDS011;16089;59.952;10.818;2023-07-24T07:57:43;3.17;;;0.95;;
28988;SDS011;16089;59.952;10.818;2023-07-24T08:00:11;3.65;;;1.10;;
28988;SDS011;16089;59.952;10.818;2023-07-24T08:02:38;6.38;;;3.30;;
28988;SDS011;16089;59.952;10.818;2023-07-24T08:05:05;3.53;;;0.90;;
28988;SDS011;16089;59.952;10.818;2023-07-24T08:07:32;2.83;;;0.70;;
28988;SDS011;16089;59.952;10.818;2023-07-24T08:09:58;0.90;;;0.50;;
28988;SDS011;16089;59.952;10.818;2023-07-24T08:12:25;2.15;;;0.80;;
28988;SDS011;16089;59.952;10.818;2023-07-24T08:14:51;1.50;;;0.80;;
28988;SDS011;16089;59.952;10.818;2023-07-24T08:17:19;2.58;;;0.70;;
28988;SDS011;16089;59.952;10.818;2023-07-24T08:19:45;1.85;;;0.85;;
28988;SDS011;16089;59.952;10.818;2023-07-24T08:22:11;1.70;;;0.85;;
28988;SDS011;16089;59.952;10.818;2023-07-24T08:24:38;1.55;;;0.70;;
28988;SDS011;16089;59.952;10.818;2023-07-24T08:27:04;1.42;;;0.80;;
28988;SDS011;16089;59.952;10.818;2023-07-24T08:29:30;1.73;;;0.77;;
28988;SDS011;16089;59.952;10.818;2023-07-24T08:31:58;1.15;;;0.70;;
28988;SDS011;16089;59.952;10.818;2023-07-24T08:34:25;2.03;;;0.88;;
28988;SDS011;16089;59.952;10.818;2023-07-24T08:36:52;3.17;;;0.70;;
28988;SDS011;16089;59.952;10.818;2023-07-24T08:39:18;1.48;;;0.90;;
28988;SDS011;16089;59.952;10.818;2023-07-24T08:41:44;2.55;;;1.00;;
28988;SDS011;16089;59.952;10.818;2023-07-24T08:44:11;1.63;;;0.70;;
28988;SDS011;16089;59.952;10.818;2023-07-24T08:46:38;2.97;;;0.70;;
28988;SDS011;16089;59.952;10.818;2023-07-24T08:49:06;3.30;;;0.75;;
28988;SDS011;16089;59.952;10.818;2023-07-24T08:51:34;1.08;;;0.70;;
28988;SDS011;16089;59.952;10.818;2023-07-24T08:54:01;2.53;;;0.70;;
28988;SDS011;16089;59.952;10.818;2023-07-24T08:56:29;1.33;;;0.80;;
28988;SDS011;16089;59.952;10.818;2023-07-24T08:58:55;3.55;;;0.70;;
28988;SDS011;16089;59.952;10.818;2023-07-24T09:01:21;2.60;;;0.70;;
28988;SDS011;16089;59.952;10.818;2023-07-24T09:03:48;2.45;;;0.80;;
28988;SDS011;16089;59.952;10.818;2023-07-24T09:06:14;1.67;;;0.82;;
28988;SDS011;16089;59.952;10.818;2023-07-24T09:08:42;1.70;;;0.90;;
28988;SDS011;16089;59.952;10.818;2023-07-24T09:11:09;2.55;;;0.70;;
28988;SDS011;16089;59.952;10.818;2023-07-24T09:13:36;2.83;;;0.70;;
28988;SDS011;16089;59.952;10.818;2023-07-24T09:16:02;2.00;;;0.90;;
28988;SDS011;16089;59.952;10.818;2023-07-24T09:18:38;1.63;;;0.70;;
28988;SDS011;16089;59.952;10.818;2023-07-24T09:21:04;2.38;;;0.90;;
28988;SDS011;16089;59.952;10.818;2023-07-24T09:23:31;3.47;;;0.90;;
28988;SDS011;16089;59.952;10.818;2023-07-24T09:25:58;2.13;;;0.88;;
28988;SDS011;16089;59.952;10.818;2023-07-24T09:28:25;1.73;;;0.82;;
28988;SDS011;16089;59.952;10.818;2023-07-24T09:30:51;1.02;;;0.60;;
28988;SDS011;16089;59.952;10.818;2023-07-24T09:33:18;1.45;;;0.82;;
28988;SDS011;16089;59.952;10.818;2023-07-24T09:35:44;1.50;;;0.70;;
28988;SDS011;16089;59.952;10.818;2023-07-24T09:38:11;2.60;;;0.60;;
28988;SDS011;16089;59.952;10.818;2023-07-24T09:40:38;2.95;;;0.73;;
28988;SDS011;16089;59.952;10.818;2023-07-24T09:43:17;1.40;;;0.80;;
28988;SDS011;16089;59.952;10.818;2023-07-24T09:45:43;1.80;;;0.88;;
28988;SDS011;16089;59.952;10.818;2023-07-24T09:48:09;2.33;;;0.77;;
28988;SDS011;16089;59.952;10.818;2023-07-24T09:50:39;1.20;;;0.80;;
28988;SDS011;16089;59.952;10.818;2023-07-24T09:53:05;1.88;;;0.70;;
28988;SDS011;16089;59.952;10.818;2023-07-24T09:55:35;1.17;;;0.70;;
28988;SDS011;16089;59.952;10.818;2023-07-24T09:58:04;2.25;;;0.70;;
28988;SDS011;16089;59.952;10.818;2023-07-24T10:00:33;2.63;;;1.40;;
28988;SDS011;16089;59.952;10.818;2023-07-24T10:03:00;4.03;;;1.30;;
28988;SDS011;16089;59.952;10.818;2023-07-24T10:05:28;3.17;;;1.10;;
28988;SDS011;16089;59.952;10.818;2023-07-24T10:07:55;2.88;;;0.90;;
28988;SDS011;16089;59.952;10.818;2023-07-24T10:10:21;1.33;;;0.70;;
28988;SDS011;16089;59.952;10.818;2023-07-24T10:12:48;2.83;;;0.80;;
28988;SDS011;16089;59.952;10.818;2023-07-24T10:15:14;2.30;;;0.77;;
28988;SDS011;16089;59.952;10.818;2023-07-24T10:17:43;1.35;;;0.70;;
28988;SDS011;16089;59.952;10.818;2023-07-24T10:20:10;1.25;;;0.77;;
28988;SDS011;16089;59.952;10.818;2023-07-24T10:22:36;1.77;;;0.88;;
28988;SDS011;16089;59.952;10.818;2023-07-24T10:25:06;3.13;;;0.90;;
28988;SDS011;16089;59.952;10.818;2023-07-24T10:27:35;3.35;;;0.85;;
28988;SDS011;16089;59.952;10.818;2023-07-24T10:30:02;1.45;;;0.77;;
28988;SDS011;16089;59.952;10.818;2023-07-24T10:32:28;1.33;;;0.80;;
28988;SDS011;16089;59.952;10.818;2023-07-24T10:34:57;1.52;;;0.75;;
28988;SDS011;16089;59.952;10.818;2023-07-24T10:37:31;2.45;;;0.80;;
28988;SDS011;16089;59.952;10.818;2023-07-24T10:39:57;3.72;;;1.00;;
28988;SDS011;16089;59.952;10.818;2023-07-24T10:42:23;2.35;;;0.70;;
28988;SDS011;16089;59.952;10.818;2023-07-24T10:44:50;1.92;;;0.90;;
28988;SDS011;16089;59.952;10.818;2023-07-24T10:47:16;1.73;;;0.90;;
28988;SDS011;16089;59.952;10.818;2023-07-24T10:49:48;1.88;;;0.82;;
28988;SDS011;16089;59.952;10.818;2023-07-24T10:52:16;2.25;;;0.90;;
28988;SDS011;16089;59.952;10.818;2023-07-24T10:54:42;2.03;;;0.75;;
28988;SDS011;16089;59.952;10.818;2023-07-24T10:57:08;2.13;;;1.00;;
28988;SDS011;16089;59.952;10.818;2023-07-24T10:59:35;1.98;;;0.90;;
28988;SDS011;16089;59.952;10.818;2023-07-24T11:02:02;3.65;;;0.90;;
28988;SDS011;16089;59.952;10.818;2023-07-24T11:04:29;4.07;;;1.65;;
28988;SDS011;16089;59.952;10.818;2023-07-24T11:06:55;3.25;;;1.10;;
28988;SDS011;16089;59.952;10.818;2023-07-24T11:09:32;2.17;;;1.00;;
28988;SDS011;16089;59.952;10.818;2023-07-24T11:11:59;3.45;;;1.00;;
28988;SDS011;16089;59.952;10.818;2023-07-24T11:14:26;1.88;;;0.95;;
28988;SDS011;16089;59.952;10.818;2023-07-24T11:16:52;1.63;;;0.80;;
28988;SDS011;16089;59.952;10.818;2023-07-24T11:19:22;2.00;;;0.88;;
28988;SDS011;16089;59.952;10.818;2023-07-24T11:21:48;2.30;;;1.10;;
28988;SDS011;16089;59.952;10.818;2023-07-24T11:24:15;2.70;;;0.80;;
28988;SDS011;16089;59.952;10.818;2023-07-24T11:26:44;1.70;;;1.00;;
28988;SDS011;16089;59.952;10.818;2023-07-24T11:29:11;2.38;;;1.00;;
28988;SDS011;16089;59.952;10.818;2023-07-24T11:31:37;2.30;;;1.10;;
28988;SDS011;16089;59.952;10.818;2023-07-24T11:34:04;2.15;;;1.10;;
28988;SDS011;16089;59.952;10.818;2023-07-24T11:36:31;3.03;;;1.10;;
28988;SDS011;16089;59.952;10.818;2023-07-24T11:38:57;2.88;;;1.10;;
28988;SDS011;16089;59.952;10.818;2023-07-24T11:41:25;2.47;;;1.02;;
28988;SDS011;16089;59.952;10.818;2023-07-24T11:43:53;2.08;;;1.20;;
28988;SDS011;16089;59.952;10.818;2023-07-24T11:46:23;2.17;;;1.05;;
28988;SDS011;16089;59.952;10.818;2023-07-24T11:48:50;3.65;;;1.00;;
28988;SDS011;16089;59.952;10.818;2023-07-24T11:51:18;4.85;;;2.33;;
28988;SDS011;16089;59.952;10.818;2023-07-24T11:53:45;2.85;;;1.42;;
28988;SDS011;16089;59.952;10.818;2023-07-24T11:56:12;4.85;;;1.10;;
28988;SDS011;16089;59.952;10.818;2023-07-24T11:58:39;2.67;;;1.25;;
28988;SDS011;16089;59.952;10.818;2023-07-24T12:01:07;2.92;;;1.17;;
28988;SDS011;16089;59.952;10.818;2023-07-24T12:03:33;2.35;;;1.10;;
28988;SDS011;16089;59.952;10.818;2023-07-24T12:05:59;3.13;;;1.40;;
28988;SDS011;16089;59.952;10.818;2023-07-24T12:08:29;3.45;;;1.40;;
28988;SDS011;16089;59.952;10.818;2023-07-24T12:10:56;2.50;;;1.35;;
28988;SDS011;16089;59.952;10.818;2023-07-24T12:13:22;2.58;;;1.20;;
28988;SDS011;16089;59.952;10.818;2023-07-24T12:15:48;2.78;;;1.20;;
28988;SDS011;16089;59.952;10.818;2023-07-24T12:18:16;3.28;;;1.10;;
28988;SDS011;16089;59.952;10.818;2023-07-24T12:20:42;3.28;;;1.30;;
28988;SDS011;16089;59.952;10.818;2023-07-24T12:23:09;4.85;;;1.50;;
28988;SDS011;16089;59.952;10.818;2023-07-24T12:25:35;2.78;;;1.40;;
28988;SDS011;16089;59.952;10.818;2023-07-24T12:28:01;3.70;;;1.20;;
28988;SDS011;16089;59.952;10.818;2023-07-24T12:30:28;6.90;;;1.55;;
28988;SDS011;16089;59.952;10.818;2023-07-24T12:32:54;2.50;;;1.40;;
28988;SDS011;16089;59.952;10.818;2023-07-24T12:35:22;6.13;;;1.60;;
28988;SDS011;16089;59.952;10.818;2023-07-24T12:37:48;3.35;;;1.92;;
28988;SDS011;16089;59.952;10.818;2023-07-24T12:40:14;3.90;;;1.77;;
28988;SDS011;16089;59.952;10.818;2023-07-24T12:42:41;3.13;;;1.65;;
28988;SDS011;16089;59.952;10.818;2023-07-24T12:45:07;3.40;;;1.73;;
28988;SDS011;16089;59.952;10.818;2023-07-24T12:47:34;3.38;;;1.80;;
28988;SDS011;16089;59.952;10.818;2023-07-24T12:50:00;3.30;;;1.88;;
28988;SDS011;16089;59.952;10.818;2023-07-24T12:52:29;3.85;;;2.20;;
28988;SDS011;16089;59.952;10.818;2023-07-24T12:54:56;6.28;;;2.33;;
28988;SDS011;16089;59.952;10.818;2023-07-24T12:57:22;5.18;;;2.20;;
28988;SDS011;16089;59.952;10.818;2023-07-24T12:59:49;5.15;;;1.90;;
28988;SDS011;16089;59.952;10.818;2023-07-24T13:02:15;4.13;;;2.10;;
28988;SDS011;16089;59.952;10.818;2023-07-24T13:04:42;4.95;;;1.80;;
28988;SDS011;16089;59.952;10.818;2023-07-24T13:07:08;3.65;;;2.00;;
28988;SDS011;16089;59.952;10.818;2023-07-24T13:09:36;7.63;;;1.95;;
28988;SDS011;16089;59.952;10.818;2023-07-24T13:12:02;3.55;;;1.95;;
28988;SDS011;16089;59.952;10.818;2023-07-24T13:14:28;5.25;;;1.90;;
28988;SDS011;16089;59.952;10.818;2023-07-24T13:16:55;4.38;;;2.35;;
28988;SDS011;16089;59.952;10.818;2023-07-24T13:19:21;4.90;;;2.10;;
28988;SDS011;16089;59.952;10.818;2023-07-24T13:21:48;3.97;;;1.85;;
28988;SDS011;16089;59.952;10.818;2023-07-24T13:24:14;3.13;;;1.70;;
28988;SDS011;16089;59.952;10.818;2023-07-24T13:26:42;5.43;;;2.25;;
28988;SDS011;16089;59.952;10.818;2023-07-24T13:29:09;6.80;;;2.08;;
28988;SDS011;16089;59.952;10.818;2023-07-24T13:31:35;4.68;;;1.80;;
28988;SDS011;16089;59.952;10.818;2023-07-24T13:34:02;4.95;;;2.10;;
28988;SDS011;16089;59.952;10.818;2023-07-24T13:36:28;6.15;;;2.22;;
28988;SDS011;16089;59.952;10.818;2023-07-24T13:38:54;5.28;;;2.80;;
28988;SDS011;16089;59.952;10.818;2023-07-24T13:41:21;4.65;;;2.10;;
28988;SDS011;16089;59.952;10.818;2023-07-24T13:43:48;5.95;;;2.22;;
28988;SDS011;16089;59.952;10.818;2023-07-24T13:46:15;4.57;;;1.95;;
28988;SDS011;16089;59.952;10.818;2023-07-24T13:48:41;4.38;;;2.33;;
28988;SDS011;16089;59.952;10.818;2023-07-24T13:51:07;5.32;;;2.47;;
28988;SDS011;16089;59.952;10.818;2023-07-24T13:53:34;4.72;;;2.53;;
28988;SDS011;16089;59.952;10.818;2023-07-24T13:56:00;6.93;;;2.45;;
28988;SDS011;16089;59.952;10.818;2023-07-24T13:58:26;3.55;;;2.22;;
28988;SDS011;16089;59.952;10.818;2023-07-24T14:00:54;4.05;;;2.50;;
28988;SDS011;16089;59.952;10.818;2023-07-24T14:03:20;4.68;;;2.05;;
28988;SDS011;16089;59.952;10.818;2023-07-24T14:05:46;5.63;;;2.40;;
28988;SDS011;16089;59.952;10.818;2023-07-24T14:08:13;5.82;;;2.53;;
28988;SDS011;16089;59.952;10.818;2023-07-24T14:10:39;5.53;;;2.30;;
28988;SDS011;16089;59.952;10.818;2023-07-24T14:13:05;6.43;;;2.80;;
28988;SDS011;16089;59.952;10.818;2023-07-24T14:15:32;4.43;;;2.30;;
28988;SDS011;16089;59.952;10.818;2023-07-24T14:17:59;5.53;;;2.50;;
28988;SDS011;16089;59.952;10.818;2023-07-24T14:20:26;5.88;;;2.50;;
28988;SDS011;16089;59.952;10.818;2023-07-24T14:22:52;5.15;;;2.70;;
28988;SDS011;16089;59.952;10.818;2023-07-24T14:25:18;3.92;;;2.42;;
28988;SDS011;16089;59.952;10.818;2023-07-24T14:27:45;4.45;;;1.83;;
28988;SDS011;16089;59.952;10.818;2023-07-24T14:30:11;5.43;;;2.53;;